Time;durP1;ratioP1;P1;durP2;ratioP2;P2;SDS_P1;SDS_P2;PMS_P1;PMS_P2;Temp;Humidity;BMP_temperature;BMP_pressure;BME280_temperature;BME280_humidity;BME280_pressure;Samples;Min_cycle;Max_cycle;Signal;HPM_P1;HPM_P2
2022/01/01 00:00:54;;;;;;;113.85;44.28;;;;;;;;;;5019495;28;20028;-59
2022/01/01 00:03:20;;;;;;;108.95;40.90;;;;;;;;;;4999188;28;20100;-59
2022/01/01 00:05:46;;;;;;;109.95;37.97;;;;;;;;;;5018119;28;20041;-60
2022/01/01 00:08:16;;;;;;;119.35;45.63;;;;;;;;;;5000615;28;20479;-60
2022/01/01 00:10:41;;;;;;;96.20;40.05;;;;;;;;;;4990864;28;20124;-61
2022/01/01 00:13:09;;;;;;;104.28;35.83;;;;;;;;;;5018982;28;20051;-60
2022/01/01 00:15:34;;;;;;;95.85;33.75;;;;;;;;;;4986203;28;21109;-61
2022/01/01 00:18:02;;;;;;;94.75;34.10;;;;;;;;;;4999744;28;20042;-60
2022/01/01 00:20:30;;;;;;;86.88;31.10;;;;;;;;;;4999862;28;20028;-60
2022/01/01 00:23:00;;;;;;;138.73;55.70;;;;;;;;;;5016871;28;20136;-60
2022/01/01 00:25:28;;;;;;;148.68;53.70;;;;;;;;;;5017828;28;20044;-60
2022/01/01 00:27:56;;;;;;;86.78;27.80;;;;;;;;;;5004462;28;20120;-59
2022/01/01 00:30:24;;;;;;;82.55;28.20;;;;;;;;;;5007939;28;20064;-59
2022/01/01 00:32:50;;;;;;;75.45;24.67;;;;;;;;;;5018219;28;20095;-60
2022/01/01 00:35:15;;;;;;;67.47;22.83;;;;;;;;;;5019001;28;20033;-59
2022/01/01 00:37:43;;;;;;;75.93;21.35;;;;;;;;;;5006503;28;20040;-60
2022/01/01 00:40:09;;;;;;;90.68;27.00;;;;;;;;;;5018560;28;20095;-59
2022/01/01 00:42:37;;;;;;;80.35;22.58;;;;;;;;;;4986169;28;20045;-61
2022/01/01 00:45:04;;;;;;;76.38;22.35;;;;;;;;;;5018029;28;20040;-60
2022/01/01 00:47:29;;;;;;;70.57;22.83;;;;;;;;;;4998910;28;20037;-59
2022/01/01 00:49:57;;;;;;;68.43;22.20;;;;;;;;;;5017078;28;20060;-60
2022/01/01 00:52:23;;;;;;;64.97;23.40;;;;;;;;;;5003440;28;20037;-60
2022/01/01 00:54:54;;;;;;;73.35;21.73;;;;;;;;;;5017345;28;20051;-60
2022/01/01 00:57:27;;;;;;;62.00;18.77;;;;;;;;;;4983464;28;20037;-60
2022/01/01 00:59:53;;;;;;;66.22;20.38;;;;;;;;;;5018300;28;20678;-59
2022/01/01 01:02:18;;;;;;;67.97;19.73;;;;;;;;;;5000512;28;20037;-60
2022/01/01 01:04:46;;;;;;;152.25;79.35;;;;;;;;;;4985807;28;20041;-60
2022/01/01 01:07:12;;;;;;;56.88;20.25;;;;;;;;;;4996142;28;20052;-60
2022/01/01 01:09:38;;;;;;;63.03;16.23;;;;;;;;;;4996534;28;20034;-61
2022/01/01 01:12:03;;;;;;;66.70;17.70;;;;;;;;;;5001768;28;21129;-60
2022/01/01 01:14:39;;;;;;;60.08;16.23;;;;;;;;;;5001764;28;20031;-60
2022/01/01 01:17:10;;;;;;;63.95;16.77;;;;;;;;;;5003503;28;20042;-60
2022/01/01 01:19:36;;;;;;;56.25;14.82;;;;;;;;;;5015202;28;20944;-60
2022/01/01 01:22:06;;;;;;;49.72;15.02;;;;;;;;;;5016402;28;20084;-60
2022/01/01 01:24:34;;;;;;;61.00;14.95;;;;;;;;;;5004028;28;20025;-60
2022/01/01 01:27:06;;;;;;;68.55;15.20;;;;;;;;;;4986551;28;20034;-60
2022/01/01 01:29:45;;;;;;;44.97;14.50;;;;;;;;;;5017503;28;20025;-60
2022/01/01 01:32:10;;;;;;;56.45;15.30;;;;;;;;;;4998288;28;20151;-60
2022/01/01 01:34:39;;;;;;;48.92;14.75;;;;;;;;;;5000491;28;20025;-60
2022/01/01 01:37:06;;;;;;;65.00;15.10;;;;;;;;;;4998513;28;20069;-60
2022/01/01 01:39:34;;;;;;;53.63;14.80;;;;;;;;;;4997765;28;20072;-60
2022/01/01 01:42:02;;;;;;;64.20;19.42;;;;;;;;;;4999668;28;20972;-59
2022/01/01 01:44:33;;;;;;;64.70;17.50;;;;;;;;;;4995212;28;20150;-59
2022/01/01 01:47:02;;;;;;;61.78;18.25;;;;;;;;;;5015717;28;20116;-60
2022/01/01 01:49:32;;;;;;;54.45;15.45;;;;;;;;;;5005612;28;20021;-60
2022/01/01 01:52:00;;;;;;;59.95;16.45;;;;;;;;;;5004154;28;20037;-59
2022/01/01 01:54:25;;;;;;;46.00;16.75;;;;;;;;;;5000014;28;20033;-60
2022/01/01 01:56:51;;;;;;;70.15;15.30;;;;;;;;;;5017528;28;20072;-60
2022/01/01 01:59:17;;;;;;;67.38;15.10;;;;;;;;;;4990599;28;20041;-60
2022/01/01 02:01:49;;;;;;;53.38;16.05;;;;;;;;;;4988743;28;20848;-60
2022/01/01 02:04:20;;;;;;;68.83;16.57;;;;;;;;;;5003014;28;20025;-60
2022/01/01 02:06:46;;;;;;;74.65;17.52;;;;;;;;;;5016534;28;20062;-60
2022/01/01 02:09:14;;;;;;;69.95;17.58;;;;;;;;;;5005289;28;20444;-60
2022/01/01 02:11:40;;;;;;;79.97;18.58;;;;;;;;;;5019588;28;20472;-59
2022/01/01 02:19:24;;;;;;;78.20;22.50;;;;;;;;;;5020380;28;20044;-59
2022/01/01 02:21:53;;;;;;;86.50;24.98;;;;;;;;;;5001688;28;20063;-60
2022/01/01 02:24:18;;;;;;;93.35;26.83;;;;;;;;;;5021668;28;20041;-59
2022/01/01 02:26:46;;;;;;;97.78;27.90;;;;;;;;;;5021672;28;20088;-60
2022/01/01 02:29:14;;;;;;;103.53;30.00;;;;;;;;;;5020848;28;20140;-60
2022/01/01 02:31:40;;;;;;;88.85;28.30;;;;;;;;;;5001186;28;20041;-59
2022/01/01 02:34:08;;;;;;;103.15;29.02;;;;;;;;;;5006098;28;20075;-58
2022/01/01 02:36:40;;;;;;;128.02;32.45;;;;;;;;;;5019227;28;20151;-60
2022/01/01 02:39:09;;;;;;;102.45;30.45;;;;;;;;;;5001083;28;20630;-60
2022/01/01 02:41:35;;;;;;;86.28;28.98;;;;;;;;;;4987957;28;20065;-59
2022/01/01 02:44:00;;;;;;;110.65;31.13;;;;;;;;;;4972886;28;20037;-59
2022/01/01 02:46:28;;;;;;;100.38;29.40;;;;;;;;;;5002091;28;20040;-60
2022/01/01 02:48:54;;;;;;;116.38;29.45;;;;;;;;;;4992596;28;20162;-60
2022/01/01 02:51:19;;;;;;;101.90;28.15;;;;;;;;;;4993249;28;21988;-59
2022/01/01 02:53:48;;;;;;;99.93;26.02;;;;;;;;;;5004528;28;20052;-59
2022/01/01 02:56:13;;;;;;;85.07;27.50;;;;;;;;;;4979063;28;20029;-59
2022/01/01 02:58:42;;;;;;;93.22;25.75;;;;;;;;;;4990122;28;20033;-59
2022/01/01 03:01:09;;;;;;;92.10;25.52;;;;;;;;;;4994339;28;20037;-60
2022/01/01 03:03:36;;;;;;;110.25;24.58;;;;;;;;;;5006007;28;20045;-60
2022/01/01 03:06:06;;;;;;;82.75;23.88;;;;;;;;;;5001413;28;20251;-60
2022/01/01 03:08:31;;;;;;;80.68;22.60;;;;;;;;;;5005812;28;20037;-60
2022/01/01 03:10:57;;;;;;;91.88;22.45;;;;;;;;;;5004845;28;20036;-60
2022/01/01 03:13:22;;;;;;;96.70;23.40;;;;;;;;;;5002773;28;20055;-60
2022/01/01 03:15:47;;;;;;;97.50;22.63;;;;;;;;;;5002354;28;20153;-60
2022/01/01 03:18:13;;;;;;;77.70;21.23;;;;;;;;;;5017250;28;20032;-60
2022/01/01 03:20:44;;;;;;;84.82;22.38;;;;;;;;;;5018265;28;20025;-59
2022/01/01 03:23:09;;;;;;;83.32;25.00;;;;;;;;;;5018519;28;20120;-59
2022/01/01 03:25:35;;;;;;;106.57;24.20;;;;;;;;;;4989071;28;20044;-60
2022/01/01 03:28:04;;;;;;;96.35;25.05;;;;;;;;;;5021156;28;20040;-60
2022/01/01 03:30:33;;;;;;;91.40;26.02;;;;;;;;;;5021482;28;20237;-60
2022/01/01 03:33:01;;;;;;;96.70;25.98;;;;;;;;;;4985930;28;20090;-61
2022/01/01 03:35:27;;;;;;;103.65;24.85;;;;;;;;;;4992275;28;20037;-60
2022/01/01 03:37:55;;;;;;;99.07;25.08;;;;;;;;;;4989373;28;20037;-60
2022/01/01 03:40:25;;;;;;;105.70;26.15;;;;;;;;;;5003325;28;20084;-60
2022/01/01 03:42:53;;;;;;;76.70;24.75;;;;;;;;;;5018025;28;20149;-59
2022/01/01 03:45:19;;;;;;;98.72;24.77;;;;;;;;;;4988609;28;20067;-60
2022/01/01 03:47:47;;;;;;;94.28;25.45;;;;;;;;;;5005514;28;22172;-60
2022/01/01 03:50:12;;;;;;;83.93;23.30;;;;;;;;;;4983910;28;20907;-60
2022/01/01 03:52:46;;;;;;;87.45;21.20;;;;;;;;;;4986675;28;20118;-60
2022/01/01 03:55:12;;;;;;;92.88;23.00;;;;;;;;;;5001573;28;20039;-60
2022/01/01 03:57:40;;;;;;;76.93;21.08;;;;;;;;;;5018609;28;20036;-59
2022/01/01 04:00:12;;;;;;;98.15;21.98;;;;;;;;;;5019885;28;20526;-60
2022/01/01 04:02:43;;;;;;;84.30;20.38;;;;;;;;;;5018886;28;20037;-60
2022/01/01 04:05:11;;;;;;;93.00;20.65;;;;;;;;;;5007777;28;20095;-60
2022/01/01 04:07:40;;;;;;;85.63;19.55;;;;;;;;;;5017034;28;20630;-60
2022/01/01 04:10:05;;;;;;;84.45;19.73;;;;;;;;;;5001842;28;20033;-60
2022/01/01 04:12:36;;;;;;;84.47;19.98;;;;;;;;;;5001578;28;20041;-59
2022/01/01 04:15:05;;;;;;;65.38;19.30;;;;;;;;;;5019955;28;20663;-60
2022/01/01 04:17:35;;;;;;;62.88;19.15;;;;;;;;;;5019417;28;20079;-60
2022/01/01 04:20:01;;;;;;;87.47;21.55;;;;;;;;;;5004356;28;22080;-60
2022/01/01 04:22:26;;;;;;;79.60;21.00;;;;;;;;;;4999080;28;20045;-60
2022/01/01 04:24:52;;;;;;;81.65;21.45;;;;;;;;;;5017187;28;20037;-61
2022/01/01 04:27:18;;;;;;;85.35;20.33;;;;;;;;;;5000967;28;20029;-60
2022/01/01 04:29:44;;;;;;;83.03;21.42;;;;;;;;;;5017159;28;20042;-61
2022/01/01 04:32:13;;;;;;;77.72;20.48;;;;;;;;;;5020063;28;20040;-61
2022/01/01 04:34:39;;;;;;;90.50;21.45;;;;;;;;;;5017404;28;20068;-62
2022/01/01 04:37:12;;;;;;;82.30;23.00;;;;;;;;;;5019488;28;20025;-60
2022/01/01 04:39:39;;;;;;;96.65;22.30;;;;;;;;;;4988926;28;20047;-60
2022/01/01 04:42:05;;;;;;;81.40;21.00;;;;;;;;;;5019342;28;20162;-61
2022/01/01 04:44:30;;;;;;;76.38;21.20;;;;;;;;;;5018405;28;20201;-60
2022/01/01 04:46:56;;;;;;;88.70;21.05;;;;;;;;;;5006399;28;20686;-60
2022/01/01 04:49:22;;;;;;;73.28;22.00;;;;;;;;;;5017971;28;20033;-60
2022/01/01 04:51:50;;;;;;;79.55;21.38;;;;;;;;;;5019330;28;20096;-60
2022/01/01 04:54:17;;;;;;;88.32;22.50;;;;;;;;;;5000708;28;20574;-60
2022/01/01 04:56:47;;;;;;;90.90;23.67;;;;;;;;;;5003288;28;20816;-59
2022/01/01 04:59:13;;;;;;;91.40;23.60;;;;;;;;;;4989479;28;20145;-59
2022/01/01 05:01:41;;;;;;;78.55;22.17;;;;;;;;;;4984783;28;20032;-60
2022/01/01 05:04:09;;;;;;;80.90;22.77;;;;;;;;;;4995935;28;20635;-59
2022/01/01 05:06:40;;;;;;;99.47;25.45;;;;;;;;;;4996069;28;20050;-60
2022/01/01 05:09:06;;;;;;;83.53;23.45;;;;;;;;;;4995284;28;20110;-60
2022/01/01 05:11:31;;;;;;;89.05;25.48;;;;;;;;;;4984784;28;20038;-59
2022/01/01 05:13:58;;;;;;;89.93;25.65;;;;;;;;;;4985175;28;20053;-60
2022/01/01 05:16:26;;;;;;;73.45;24.65;;;;;;;;;;4998659;28;20568;-60
2022/01/01 05:18:59;;;;;;;98.65;26.05;;;;;;;;;;4970152;28;22017;-60
2022/01/01 05:21:32;;;;;;;93.60;26.05;;;;;;;;;;4999459;28;20041;-60
2022/01/01 05:23:58;;;;;;;92.75;29.10;;;;;;;;;;4993461;28;20048;-59
2022/01/01 05:26:29;;;;;;;91.63;27.88;;;;;;;;;;4988040;28;21914;-59
2022/01/01 05:28:57;;;;;;;110.47;29.45;;;;;;;;;;4999044;28;20140;-60
2022/01/01 05:31:25;;;;;;;100.30;32.75;;;;;;;;;;4999240;28;20740;-60
2022/01/01 05:33:58;;;;;;;109.07;33.30;;;;;;;;;;5004189;28;20026;-60
2022/01/01 05:36:27;;;;;;;124.80;34.50;;;;;;;;;;5002610;28;20937;-60
2022/01/01 05:38:54;;;;;;;110.93;35.67;;;;;;;;;;5004027;28;20257;-61
2022/01/01 05:41:20;;;;;;;101.38;33.85;;;;;;;;;;4986943;28;20068;-59
2022/01/01 05:43:46;;;;;;;107.47;34.50;;;;;;;;;;4984743;28;20191;-59
2022/01/01 05:46:11;;;;;;;102.78;33.95;;;;;;;;;;4972641;28;20057;-60
2022/01/01 05:48:40;;;;;;;109.35;31.95;;;;;;;;;;4972119;28;20030;-59
2022/01/01 05:51:08;;;;;;;102.47;34.50;;;;;;;;;;5002285;28;20908;-60
2022/01/01 05:53:36;;;;;;;91.80;31.70;;;;;;;;;;4986242;28;20041;-60
2022/01/01 05:56:06;;;;;;;94.40;31.00;;;;;;;;;;4985871;28;22103;-60
2022/01/01 05:58:32;;;;;;;89.40;28.05;;;;;;;;;;5002877;28;20602;-61
2022/01/01 06:01:03;;;;;;;96.13;29.20;;;;;;;;;;4981912;28;20389;-60
2022/01/01 06:03:28;;;;;;;86.18;22.95;;;;;;;;;;5000474;28;20275;-60
2022/01/01 06:05:54;;;;;;;65.07;18.45;;;;;;;;;;4995273;28;22254;-61
2022/01/01 06:08:24;;;;;;;71.40;19.17;;;;;;;;;;4987574;28;20026;-60
2022/01/01 06:10:52;;;;;;;66.57;18.70;;;;;;;;;;5010051;28;20120;-60
2022/01/01 06:13:18;;;;;;;50.65;17.42;;;;;;;;;;5021698;28;20033;-59
2022/01/01 06:15:48;;;;;;;73.35;18.20;;;;;;;;;;4993037;28;20034;-59
2022/01/01 06:18:15;;;;;;;71.18;19.13;;;;;;;;;;5021627;28;20073;-60
2022/01/01 06:20:42;;;;;;;72.68;18.27;;;;;;;;;;4990153;28;22149;-60
2022/01/01 06:23:07;;;;;;;69.95;18.05;;;;;;;;;;4991054;28;20056;-59
2022/01/01 06:25:38;;;;;;;73.35;20.35;;;;;;;;;;5019873;28;20021;-61
2022/01/01 06:28:06;;;;;;;85.22;18.90;;;;;;;;;;5002140;28;20029;-61
2022/01/01 06:30:34;;;;;;;69.25;19.65;;;;;;;;;;5022609;28;20380;-60
2022/01/01 06:33:10;;;;;;;73.38;18.42;;;;;;;;;;5018924;28;20124;-61
2022/01/01 06:35:41;;;;;;;59.28;16.42;;;;;;;;;;5020382;28;20029;-61
2022/01/01 06:38:09;;;;;;;74.53;20.17;;;;;;;;;;5002465;28;20052;-60
2022/01/01 06:40:42;;;;;;;78.90;19.75;;;;;;;;;;5020975;28;20111;-60
2022/01/01 06:43:08;;;;;;;77.50;19.80;;;;;;;;;;5002736;28;20029;-61
2022/01/01 06:45:39;;;;;;;70.93;17.73;;;;;;;;;;5023387;28;20032;-59
2022/01/01 06:48:09;;;;;;;70.20;18.75;;;;;;;;;;5003344;28;20038;-59
2022/01/01 06:50:37;;;;;;;77.50;18.30;;;;;;;;;;4991096;28;20029;-60
2022/01/01 06:53:04;;;;;;;67.93;17.45;;;;;;;;;;5000614;28;20044;-59
2022/01/01 06:55:30;;;;;;;66.57;15.75;;;;;;;;;;5012928;28;20045;-60
2022/01/01 06:57:56;;;;;;;64.50;15.88;;;;;;;;;;5000926;28;20394;-60
2022/01/01 07:00:26;;;;;;;75.03;17.95;;;;;;;;;;5008797;28;20041;-60
2022/01/01 07:02:54;;;;;;;76.45;17.63;;;;;;;;;;5019263;28;20041;-60
2022/01/01 07:05:27;;;;;;;53.05;15.98;;;;;;;;;;4972511;28;20042;-61
2022/01/01 07:07:53;;;;;;;59.28;15.63;;;;;;;;;;4958586;28;20172;-62
2022/01/01 07:10:19;;;;;;;84.68;17.70;;;;;;;;;;4953772;28;20081;-60
2022/01/01 07:12:46;;;;;;;59.45;16.27;;;;;;;;;;4988964;28;20038;-59
2022/01/01 07:15:15;;;;;;;64.78;16.80;;;;;;;;;;4998761;28;20508;-60
2022/01/01 07:17:46;;;;;;;72.43;17.42;;;;;;;;;;4998665;28;20044;-60
2022/01/01 07:20:11;;;;;;;68.05;17.67;;;;;;;;;;4998170;28;20042;-60
2022/01/01 07:22:43;;;;;;;59.03;17.13;;;;;;;;;;4998598;28;20072;-60
2022/01/01 07:25:12;;;;;;;62.03;17.70;;;;;;;;;;4998968;28;20853;-60
2022/01/01 07:27:41;;;;;;;71.63;15.73;;;;;;;;;;4982858;28;20036;-60
2022/01/01 07:30:07;;;;;;;60.70;16.55;;;;;;;;;;5000281;28;20033;-60
2022/01/01 07:32:39;;;;;;;52.67;15.52;;;;;;;;;;4967069;28;20481;-59
2022/01/01 07:35:10;;;;;;;63.35;15.35;;;;;;;;;;4970494;28;20046;-60
2022/01/01 07:37:36;;;;;;;57.92;15.00;;;;;;;;;;4983392;28;20037;-60
2022/01/01 07:40:02;;;;;;;60.05;16.02;;;;;;;;;;4981582;28;20038;-60
2022/01/01 07:42:28;;;;;;;66.32;15.15;;;;;;;;;;4996175;28;20552;-61
2022/01/01 07:44:57;;;;;;;68.85;16.52;;;;;;;;;;4998179;28;20034;-60
2022/01/01 07:47:24;;;;;;;75.35;17.85;;;;;;;;;;4980584;28;20030;-60
2022/01/01 07:49:53;;;;;;;70.65;18.63;;;;;;;;;;4981439;28;20037;-60
2022/01/01 07:52:20;;;;;;;57.10;16.02;;;;;;;;;;4984707;28;20046;-61
2022/01/01 07:54:48;;;;;;;64.72;15.77;;;;;;;;;;4979768;28;20123;-60
2022/01/01 07:57:16;;;;;;;60.25;15.45;;;;;;;;;;4984298;28;20091;-59
2022/01/01 07:59:44;;;;;;;59.15;16.13;;;;;;;;;;4970998;28;20046;-61
2022/01/01 08:02:09;;;;;;;56.65;16.25;;;;;;;;;;4982328;28;20937;-61
2022/01/01 08:04:37;;;;;;;56.00;14.93;;;;;;;;;;4989006;28;20028;-60
2022/01/01 08:07:05;;;;;;;55.88;15.93;;;;;;;;;;5001430;28;20037;-59
2022/01/01 08:09:33;;;;;;;63.85;16.70;;;;;;;;;;5017339;28;20037;-60
2022/01/01 08:12:01;;;;;;;63.65;17.38;;;;;;;;;;5017521;28;20037;-60
2022/01/01 08:14:29;;;;;;;82.47;18.35;;;;;;;;;;5017821;28;20037;-60
2022/01/01 08:17:00;;;;;;;65.97;18.27;;;;;;;;;;5017589;28;20231;-59
2022/01/01 08:19:26;;;;;;;72.20;20.27;;;;;;;;;;5018413;28;20029;-59
2022/01/01 08:21:55;;;;;;;87.82;21.20;;;;;;;;;;4998085;28;20507;-58
2022/01/01 08:24:21;;;;;;;58.22;18.08;;;;;;;;;;5017391;28;20029;-59
2022/01/01 08:26:46;;;;;;;61.75;16.85;;;;;;;;;;5014529;28;20040;-60
2022/01/01 08:29:13;;;;;;;73.20;19.40;;;;;;;;;;5016410;28;20013;-60
2022/01/01 08:31:41;;;;;;;73.43;19.05;;;;;;;;;;4998556;28;20437;-60
2022/01/01 08:34:07;;;;;;;60.08;18.73;;;;;;;;;;5017883;28;22576;-60
2022/01/01 08:36:32;;;;;;;60.70;17.67;;;;;;;;;;5016354;28;20025;-59
2022/01/01 08:39:05;;;;;;;82.70;21.00;;;;;;;;;;5001138;28;20025;-59
2022/01/01 08:41:35;;;;;;;64.10;19.38;;;;;;;;;;5017030;28;20044;-60
2022/01/01 08:44:06;;;;;;;69.80;19.05;;;;;;;;;;5016510;28;20532;-60
2022/01/01 08:46:31;;;;;;;74.43;19.85;;;;;;;;;;5005976;28;20068;-60
2022/01/01 08:49:00;;;;;;;68.32;20.58;;;;;;;;;;5018053;28;20033;-60
2022/01/01 08:51:28;;;;;;;81.20;20.65;;;;;;;;;;4974146;28;20040;-59
2022/01/01 08:53:53;;;;;;;68.30;20.45;;;;;;;;;;5000934;28;20043;-60
2022/01/01 08:56:21;;;;;;;63.40;18.40;;;;;;;;;;5000631;28;20112;-60
2022/01/01 08:58:47;;;;;;;74.43;17.85;;;;;;;;;;5018986;28;20412;-60
2022/01/01 09:01:13;;;;;;;60.83;20.13;;;;;;;;;;5004948;28;20045;-59
2022/01/01 09:03:41;;;;;;;62.30;19.05;;;;;;;;;;4989014;28;20032;-58
2022/01/01 09:06:07;;;;;;;56.13;18.02;;;;;;;;;;4971730;28;20053;-58
2022/01/01 09:08:33;;;;;;;64.97;18.25;;;;;;;;;;4990870;28;20152;-59
2022/01/01 09:11:04;;;;;;;54.72;17.40;;;;;;;;;;4998505;28;20412;-60
2022/01/01 09:13:32;;;;;;;56.75;16.98;;;;;;;;;;5017779;28;20441;-59
2022/01/01 09:15:58;;;;;;;53.42;17.15;;;;;;;;;;5001391;28;20568;-59
2022/01/01 09:18:23;;;;;;;57.42;16.85;;;;;;;;;;5005472;28;20040;-60
2022/01/01 09:20:51;;;;;;;59.35;17.88;;;;;;;;;;4999454;28;20045;-58
2022/01/01 09:23:17;;;;;;;46.63;14.90;;;;;;;;;;5001919;28;20052;-58
2022/01/01 09:25:42;;;;;;;53.83;16.23;;;;;;;;;;4989234;28;20053;-59
2022/01/01 09:28:07;;;;;;;39.13;16.23;;;;;;;;;;4999716;28;20085;-58
2022/01/01 09:30:33;;;;;;;55.38;17.48;;;;;;;;;;5014801;28;20040;-59
2022/01/01 09:33:03;;;;;;;47.58;17.17;;;;;;;;;;5017194;28;20029;-60
2022/01/01 09:35:28;;;;;;;50.10;17.60;;;;;;;;;;5003743;28;20068;-58
2022/01/01 09:37:54;;;;;;;51.58;17.60;;;;;;;;;;4998936;28;20151;-58
2022/01/01 09:40:22;;;;;;;42.13;16.05;;;;;;;;;;5016409;28;20088;-58
2022/01/01 09:42:47;;;;;;;45.38;16.05;;;;;;;;;;4972160;28;20033;-58
2022/01/01 09:45:13;;;;;;;41.90;17.77;;;;;;;;;;5018598;28;20572;-58
2022/01/01 09:47:39;;;;;;;42.35;16.52;;;;;;;;;;4988994;28;20037;-58
2022/01/01 09:50:05;;;;;;;38.67;14.35;;;;;;;;;;5003561;28;20608;-58
2022/01/01 09:52:30;;;;;;;51.08;16.10;;;;;;;;;;5014529;28;20874;-59
2022/01/01 09:54:55;;;;;;;49.08;14.77;;;;;;;;;;4988590;28;20029;-59
2022/01/01 09:57:23;;;;;;;56.90;14.13;;;;;;;;;;4989832;28;20044;-59
2022/01/01 09:59:49;;;;;;;28.60;13.23;;;;;;;;;;5015930;28;20033;-59
2022/01/01 10:02:15;;;;;;;36.80;13.85;;;;;;;;;;5001209;28;20037;-58
2022/01/01 10:04:54;;;;;;;36.25;12.68;;;;;;;;;;5014288;28;20040;-59
2022/01/01 10:07:41;;;;;;;30.92;12.75;;;;;;;;;;4978156;28;20034;-58
2022/01/01 10:10:19;;;;;;;41.88;12.60;;;;;;;;;;4979905;28;20290;-58
2022/01/01 10:12:47;;;;;;;33.15;12.13;;;;;;;;;;4978390;28;20129;-58
2022/01/01 10:15:14;;;;;;;33.70;11.45;;;;;;;;;;4963475;28;20937;-58
2022/01/01 10:17:42;;;;;;;22.95;10.75;;;;;;;;;;4965015;28;20042;-59
2022/01/01 10:20:10;;;;;;;33.13;10.55;;;;;;;;;;4966746;28;20048;-58
2022/01/01 10:22:37;;;;;;;34.35;11.15;;;;;;;;;;4967003;28;20046;-58
2022/01/01 10:27:56;;;;;;;27.67;9.15;;;;;;;;;;4968605;28;20168;-59
2022/01/01 10:30:26;;;;;;;24.52;8.20;;;;;;;;;;4982080;28;20034;-59
2022/01/01 10:33:03;;;;;;;25.10;8.57;;;;;;;;;;4965373;28;20130;-59
2022/01/01 10:35:36;;;;;;;32.63;9.82;;;;;;;;;;4966093;28;20979;-59
2022/01/01 10:38:13;;;;;;;22.83;8.88;;;;;;;;;;4973649;28;20128;-59
2022/01/01 10:40:44;;;;;;;22.95;8.30;;;;;;;;;;5019253;28;20536;-59
2022/01/01 10:43:10;;;;;;;22.60;8.45;;;;;;;;;;5014817;28;20033;-59
2022/01/01 10:45:42;;;;;;;28.52;8.88;;;;;;;;;;5019913;28;20025;-59
2022/01/01 10:49:08;;;;;;;27.33;8.35;;;;;;;;;;4997016;28;20041;-59
2022/01/01 10:51:04;;;;;;;19.35;8.30;;;;;;;;;;5011928;28;20095;-59
2022/01/01 10:53:33;;;;;;;24.17;8.68;;;;;;;;;;5018808;28;20038;-58
2022/01/01 10:56:02;;;;;;;20.45;7.78;;;;;;;;;;5017814;28;20046;-59
2022/01/01 10:58:35;;;;;;;20.77;8.02;;;;;;;;;;5019320;28;20041;-58
2022/01/01 11:01:00;;;;;;;23.23;8.00;;;;;;;;;;5020355;28;20041;-59
2022/01/01 11:03:27;;;;;;;28.35;8.25;;;;;;;;;;5001415;28;20099;-58
2022/01/01 11:06:03;;;;;;;20.67;7.40;;;;;;;;;;5019339;28;20041;-58
2022/01/01 11:08:31;;;;;;;26.27;8.10;;;;;;;;;;4998958;28;22110;-59
2022/01/01 11:10:57;;;;;;;25.75;8.38;;;;;;;;;;5017938;28;20033;-59
2022/01/01 11:13:28;;;;;;;16.02;6.90;;;;;;;;;;4991349;28;20547;-59
2022/01/01 11:15:56;;;;;;;28.92;7.97;;;;;;;;;;5018220;28;20029;-59
2022/01/01 11:18:24;;;;;;;20.08;7.68;;;;;;;;;;5017075;28;20068;-60
2022/01/01 11:20:52;;;;;;;24.35;7.32;;;;;;;;;;5018654;28;20037;-58
2022/01/01 11:23:18;;;;;;;18.55;6.80;;;;;;;;;;5017207;28;20040;-58
2022/01/01 11:25:44;;;;;;;16.13;6.30;;;;;;;;;;5018308;28;20040;-59
2022/01/01 11:28:16;;;;;;;18.63;6.78;;;;;;;;;;4982060;28;20496;-59
2022/01/01 11:30:54;;;;;;;32.42;7.15;;;;;;;;;;5018102;28;20025;-60
2022/01/01 11:33:26;;;;;;;15.45;5.72;;;;;;;;;;5017229;28;20087;-58
2022/01/01 11:35:56;;;;;;;17.45;5.93;;;;;;;;;;5018191;28;20063;-59
2022/01/01 11:38:24;;;;;;;15.95;6.13;;;;;;;;;;5019854;28;20035;-59
2022/01/01 11:41:08;;;;;;;16.90;6.30;;;;;;;;;;5018457;28;20214;-57
2022/01/01 11:43:34;;;;;;;20.05;9.43;;;;;;;;;;5002670;28;20037;-58
2022/01/01 11:46:07;;;;;;;75.68;37.30;;;;;;;;;;5005213;28;20048;-59
2022/01/01 11:48:41;;;;;;;216.07;180.73;;;;;;;;;;5019997;28;20048;-57
2022/01/01 11:51:19;;;;;;;94.40;45.13;;;;;;;;;;5017759;28;20037;-60
2022/01/01 11:54:02;;;;;;;18.38;7.57;;;;;;;;;;5004339;28;20033;-59
2022/01/01 11:56:46;;;;;;;16.63;5.85;;;;;;;;;;5019982;28;20112;-59
2022/01/01 11:59:20;;;;;;;15.02;5.95;;;;;;;;;;5020405;28;20041;-60
2022/01/01 12:01:51;;;;;;;19.30;5.82;;;;;;;;;;5002455;28;20037;-59
2022/01/01 12:04:35;;;;;;;13.48;5.57;;;;;;;;;;5019421;28;20029;-60
2022/01/01 12:07:12;;;;;;;13.30;4.95;;;;;;;;;;5019054;28;20041;-59
2022/01/01 12:09:47;;;;;;;19.27;5.93;;;;;;;;;;5018044;28;20029;-59
2022/01/01 12:12:13;;;;;;;12.90;4.43;;;;;;;;;;5013058;28;20121;-58
2022/01/01 12:14:39;;;;;;;12.52;4.82;;;;;;;;;;5004045;28;20033;-58
2022/01/01 12:17:04;;;;;;;14.27;5.45;;;;;;;;;;5020287;28;20029;-58
2022/01/01 12:19:38;;;;;;;15.68;5.03;;;;;;;;;;5017606;28;20128;-60
2022/01/01 12:22:09;;;;;;;11.85;4.18;;;;;;;;;;5001422;28;20168;-58
2022/01/01 12:24:35;;;;;;;15.68;4.60;;;;;;;;;;5002605;28;20067;-58
2022/01/01 12:27:15;;;;;;;16.88;5.05;;;;;;;;;;5001947;28;20029;-58
2022/01/01 12:29:40;;;;;;;16.20;5.10;;;;;;;;;;5017995;28;20061;-59
2022/01/01 12:32:09;;;;;;;20.98;5.93;;;;;;;;;;4998775;28;20460;-58
2022/01/01 12:34:36;;;;;;;20.63;4.80;;;;;;;;;;4999788;28;20068;-59
2022/01/01 12:37:07;;;;;;;20.15;4.97;;;;;;;;;;5019432;28;20060;-59
2022/01/01 12:39:52;;;;;;;16.25;4.32;;;;;;;;;;4998817;28;20029;-59
2022/01/01 12:42:27;;;;;;;11.15;5.35;;;;;;;;;;4978822;28;20062;-59
2022/01/01 12:44:57;;;;;;;16.23;5.35;;;;;;;;;;5016010;28;20044;-59
2022/01/01 12:47:24;;;;;;;18.73;4.57;;;;;;;;;;5015939;28;20472;-59
2022/01/01 12:49:49;;;;;;;11.05;4.25;;;;;;;;;;5017731;28;20093;-59
2022/01/01 12:52:23;;;;;;;18.00;4.72;;;;;;;;;;4984272;28;21006;-58
2022/01/01 12:54:54;;;;;;;13.98;4.55;;;;;;;;;;4998977;28;20116;-60
2022/01/01 12:57:20;;;;;;;17.15;5.32;;;;;;;;;;5008126;28;20509;-59
2022/01/01 12:59:48;;;;;;;16.73;5.18;;;;;;;;;;4996666;28;20040;-59
2022/01/01 13:02:23;;;;;;;18.20;4.90;;;;;;;;;;5005093;28;20041;-59
2022/01/01 13:04:49;;;;;;;20.42;4.82;;;;;;;;;;5013723;28;20033;-59
2022/01/01 13:07:22;;;;;;;12.00;4.55;;;;;;;;;;4994012;28;20038;-59
2022/01/01 13:09:51;;;;;;;13.77;4.47;;;;;;;;;;5013990;28;20652;-59
2022/01/01 13:12:19;;;;;;;13.07;4.50;;;;;;;;;;5013897;28;20039;-59
2022/01/01 13:14:48;;;;;;;11.07;3.97;;;;;;;;;;5000830;28;20041;-59
2022/01/01 13:17:14;;;;;;;8.18;3.88;;;;;;;;;;4996682;28;20049;-60
2022/01/01 13:19:41;;;;;;;13.40;5.28;;;;;;;;;;5004918;28;20044;-59
2022/01/01 13:22:08;;;;;;;14.68;4.28;;;;;;;;;;4972118;28;20954;-60
2022/01/01 13:24:38;;;;;;;12.93;4.10;;;;;;;;;;4999006;28;20493;-60
2022/01/01 13:27:14;;;;;;;11.18;3.45;;;;;;;;;;4982903;28;20035;-59
2022/01/01 13:29:42;;;;;;;9.10;3.95;;;;;;;;;;5016922;28;20033;-60
2022/01/01 13:32:08;;;;;;;13.45;4.43;;;;;;;;;;4987917;28;20052;-59
2022/01/01 13:34:39;;;;;;;14.85;4.28;;;;;;;;;;5015414;28;20033;-59
2022/01/01 13:37:07;;;;;;;12.18;4.40;;;;;;;;;;5014572;28;20558;-60
2022/01/01 13:39:35;;;;;;;6.18;3.70;;;;;;;;;;4995763;28;20041;-59
2022/01/01 13:42:03;;;;;;;11.65;4.00;;;;;;;;;;5016130;28;20037;-59
2022/01/01 13:44:31;;;;;;;11.10;3.72;;;;;;;;;;4996636;28;20033;-59
2022/01/01 13:47:03;;;;;;;;;;;;;;;;;;5006599;28;20039;-59
2022/01/01 13:49:45;;;;;;;12.82;3.90;;;;;;;;;;5016869;28;19947;-60
2022/01/01 13:52:23;;;;;;;14.57;3.80;;;;;;;;;;5011921;28;20026;-59
2022/01/01 13:54:54;;;;;;;11.52;3.85;;;;;;;;;;5004103;28;20048;-59
2022/01/01 13:57:22;;;;;;;9.02;3.65;;;;;;;;;;5003120;28;20063;-59
2022/01/01 13:59:52;;;;;;;11.40;4.72;;;;;;;;;;5005550;28;20045;-58
2022/01/01 14:02:20;;;;;;;11.35;4.18;;;;;;;;;;5008973;28;20069;-59
2022/01/01 14:04:48;;;;;;;19.33;4.90;;;;;;;;;;5000131;28;20029;-59
2022/01/01 14:07:19;;;;;;;15.02;4.15;;;;;;;;;;5003427;28;20163;-60
2022/01/01 14:10:03;;;;;;;13.38;3.80;;;;;;;;;;5002633;28;20032;-60
2022/01/01 14:12:34;;;;;;;11.10;3.85;;;;;;;;;;5018327;28;20041;-59
2022/01/01 14:15:02;;;;;;;10.95;4.40;;;;;;;;;;4998918;28;20030;-58
2022/01/01 14:17:46;;;;;;;15.23;4.00;;;;;;;;;;5019342;28;20095;-59
2022/01/01 14:20:23;;;;;;;11.10;3.63;;;;;;;;;;4999140;28;20042;-59
2022/01/01 14:22:51;;;;;;;12.35;4.28;;;;;;;;;;5014792;28;20033;-59
2022/01/01 14:25:20;;;;;;;10.98;4.13;;;;;;;;;;5005240;28;20068;-59
2022/01/01 14:27:47;;;;;;;12.05;4.47;;;;;;;;;;5001750;28;20026;-59
2022/01/01 14:30:12;;;;;;;7.88;3.75;;;;;;;;;;4991060;28;20162;-60
2022/01/01 14:32:45;;;;;;;14.98;4.70;;;;;;;;;;5016198;28;20136;-60
2022/01/01 14:35:11;;;;;;;11.98;4.05;;;;;;;;;;5017805;28;20045;-60
2022/01/01 14:37:39;;;;;;;8.32;4.40;;;;;;;;;;5018517;28;20025;-60